sensor_id;sensor_type;location;lat;lon;timestamp;P1;durP1;ratioP1;P2;durP2;ratioP2
76935;SDS011;65881;52.438;16.744;2024-03-22T00:01:39;25.27;;;13.65;;
76935;SDS011;65881;52.438;16.744;2024-03-22T00:04:05;25.60;;;13.25;;
76935;SDS011;65881;52.438;16.744;2024-03-22T00:06:30;26.88;;;15.90;;
76935;SDS011;65881;52.438;16.744;2024-03-22T00:08:56;26.23;;;15.65;;
76935;SDS011;65881;52.438;16.744;2024-03-22T00:11:21;24.95;;;16.20;;
76935;SDS011;65881;52.438;16.744;2024-03-22T00:13:47;26.10;;;15.15;;
76935;SDS011;65881;52.438;16.744;2024-03-22T00:16:12;28.52;;;14.48;;
76935;SDS011;65881;52.438;16.744;2024-03-22T00:18:38;26.05;;;14.65;;
76935;SDS011;65881;52.438;16.744;2024-03-22T00:21:05;26.80;;;15.15;;
76935;SDS011;65881;52.438;16.744;2024-03-22T00:23:32;29.23;;;14.90;;
76935;SDS011;65881;52.438;16.744;2024-03-22T00:25:59;28.92;;;15.90;;
76935;SDS011;65881;52.438;16.744;2024-03-22T00:28:24;31.67;;;18.60;;
76935;SDS011;65881;52.438;16.744;2024-03-22T00:30:50;28.00;;;16.30;;
76935;SDS011;65881;52.438;16.744;2024-03-22T00:33:16;27.73;;;16.67;;
76935;SDS011;65881;52.438;16.744;2024-03-22T00:35:41;30.35;;;18.33;;
76935;SDS011;65881;52.438;16.744;2024-03-22T00:38:07;32.08;;;17.67;;
76935;SDS011;65881;52.438;16.744;2024-03-22T00:40:32;30.27;;;17.42;;
76935;SDS011;65881;52.438;16.744;2024-03-22T00:42:58;26.85;;;15.20;;
76935;SDS011;65881;52.438;16.744;2024-03-22T00:45:24;30.08;;;17.25;;
76935;SDS011;65881;52.438;16.744;2024-03-22T00:47:49;32.50;;;17.63;;
76935;SDS011;65881;52.438;16.744;2024-03-22T00:50:15;36.28;;;17.20;;
76935;SDS011;65881;52.438;16.744;2024-03-22T00:52:41;31.63;;;18.38;;
76935;SDS011;65881;52.438;16.744;2024-03-22T00:55:07;28.45;;;16.15;;
76935;SDS011;65881;52.438;16.744;2024-03-22T00:57:34;33.58;;;19.75;;
76935;SDS011;65881;52.438;16.744;2024-03-22T01:00:00;34.72;;;18.10;;
76935;SDS011;65881;52.438;16.744;2024-03-22T01:02:25;32.55;;;17.27;;
76935;SDS011;65881;52.438;16.744;2024-03-22T01:04:51;33.67;;;18.15;;
76935;SDS011;65881;52.438;16.744;2024-03-22T01:07:18;32.17;;;17.13;;
76935;SDS011;65881;52.438;16.744;2024-03-22T01:09:43;31.77;;;17.70;;
76935;SDS011;65881;52.438;16.744;2024-03-22T01:12:09;28.65;;;16.50;;
76935;SDS011;65881;52.438;16.744;2024-03-22T01:14:35;30.42;;;17.17;;
76935;SDS011;65881;52.438;16.744;2024-03-22T01:17:01;28.20;;;16.80;;
76935;SDS011;65881;52.438;16.744;2024-03-22T01:19:27;26.83;;;16.23;;
76935;SDS011;65881;52.438;16.744;2024-03-22T01:21:52;31.02;;;17.02;;
76935;SDS011;65881;52.438;16.744;2024-03-22T01:24:18;26.25;;;16.50;;
76935;SDS011;65881;52.438;16.744;2024-03-22T01:26:43;28.58;;;15.82;;
76935;SDS011;65881;52.438;16.744;2024-03-22T01:29:09;31.98;;;17.65;;
76935;SDS011;65881;52.438;16.744;2024-03-22T01:31:34;30.25;;;17.88;;
76935;SDS011;65881;52.438;16.744;2024-03-22T01:34:00;28.08;;;17.25;;
76935;SDS011;65881;52.438;16.744;2024-03-22T01:36:26;33.67;;;17.23;;
76935;SDS011;65881;52.438;16.744;2024-03-22T01:38:51;28.83;;;16.67;;
76935;SDS011;65881;52.438;16.744;2024-03-22T01:41:17;27.23;;;17.10;;
76935;SDS011;65881;52.438;16.744;2024-03-22T01:43:43;27.98;;;17.27;;
76935;SDS011;65881;52.438;16.744;2024-03-22T01:46:08;32.25;;;16.95;;
76935;SDS011;65881;52.438;16.744;2024-03-22T01:48:35;29.13;;;17.08;;
76935;SDS011;65881;52.438;16.744;2024-03-22T01:51:01;32.28;;;17.67;;
76935;SDS011;65881;52.438;16.744;2024-03-22T01:53:28;31.52;;;17.60;;
76935;SDS011;65881;52.438;16.744;2024-03-22T01:55:55;26.75;;;16.38;;
76935;SDS011;65881;52.438;16.744;2024-03-22T01:58:21;25.15;;;15.75;;
76935;SDS011;65881;52.438;16.744;2024-03-22T02:00:48;27.23;;;15.70;;
76935;SDS011;65881;52.438;16.744;2024-03-22T02:03:14;28.02;;;15.38;;
76935;SDS011;65881;52.438;16.744;2024-03-22T02:05:40;30.00;;;16.67;;
76935;SDS011;65881;52.438;16.744;2024-03-22T02:08:05;30.80;;;17.25;;
76935;SDS011;65881;52.438;16.744;2024-03-22T02:10:31;34.22;;;17.55;;
76935;SDS011;65881;52.438;16.744;2024-03-22T02:12:57;35.20;;;19.33;;
76935;SDS011;65881;52.438;16.744;2024-03-22T02:15:24;35.25;;;19.70;;
76935;SDS011;65881;52.438;16.744;2024-03-22T02:17:51;31.30;;;18.25;;
76935;SDS011;65881;52.438;16.744;2024-03-22T02:20:16;33.38;;;17.00;;
76935;SDS011;65881;52.438;16.744;2024-03-22T02:22:48;36.42;;;20.25;;
76935;SDS011;65881;52.438;16.744;2024-03-22T02:25:14;29.63;;;17.77;;
76935;SDS011;65881;52.438;16.744;2024-03-22T02:27:41;28.95;;;17.75;;
76935;SDS011;65881;52.438;16.744;2024-03-22T02:30:07;33.35;;;18.73;;
76935;SDS011;65881;52.438;16.744;2024-03-22T02:32:33;28.92;;;16.88;;
76935;SDS011;65881;52.438;16.744;2024-03-22T02:34:58;27.25;;;15.32;;
76935;SDS011;65881;52.438;16.744;2024-03-22T02:37:24;28.23;;;16.65;;
76935;SDS011;65881;52.438;16.744;2024-03-22T02:39:50;27.55;;;15.52;;
76935;SDS011;65881;52.438;16.744;2024-03-22T02:42:17;26.63;;;15.63;;
76935;SDS011;65881;52.438;16.744;2024-03-22T02:44:43;25.63;;;15.45;;
76935;SDS011;65881;52.438;16.744;2024-03-22T02:47:09;25.35;;;14.98;;
76935;SDS011;65881;52.438;16.744;2024-03-22T02:49:35;26.08;;;14.85;;
76935;SDS011;65881;52.438;16.744;2024-03-22T02:52:01;24.08;;;14.05;;
76935;SDS011;65881;52.438;16.744;2024-03-22T02:54:26;24.65;;;14.23;;
76935;SDS011;65881;52.438;16.744;2024-03-22T02:56:52;25.50;;;13.20;;
76935;SDS011;65881;52.438;16.744;2024-03-22T02:59:18;26.90;;;15.80;;
76935;SDS011;65881;52.438;16.744;2024-03-22T03:01:43;25.08;;;15.18;;
76935;SDS011;65881;52.438;16.744;2024-03-22T03:04:09;25.48;;;13.73;;
76935;SDS011;65881;52.438;16.744;2024-03-22T03:06:34;22.80;;;14.77;;
76935;SDS011;65881;52.438;16.744;2024-03-22T03:09:00;23.05;;;13.88;;
76935;SDS011;65881;52.438;16.744;2024-03-22T03:11:25;26.75;;;13.80;;
76935;SDS011;65881;52.438;16.744;2024-03-22T03:13:51;21.52;;;13.85;;
76935;SDS011;65881;52.438;16.744;2024-03-22T03:16:16;26.75;;;14.80;;
76935;SDS011;65881;52.438;16.744;2024-03-22T03:18:42;31.05;;;15.80;;
76935;SDS011;65881;52.438;16.744;2024-03-22T03:21:07;21.63;;;13.65;;
76935;SDS011;65881;52.438;16.744;2024-03-22T03:23:34;23.70;;;13.23;;
76935;SDS011;65881;52.438;16.744;2024-03-22T03:25:59;20.80;;;11.07;;
76935;SDS011;65881;52.438;16.744;2024-03-22T03:28:24;27.63;;;14.68;;
76935;SDS011;65881;52.438;16.744;2024-03-22T03:30:51;24.50;;;14.48;;
76935;SDS011;65881;52.438;16.744;2024-03-22T03:33:17;26.48;;;13.60;;
76935;SDS011;65881;52.438;16.744;2024-03-22T03:35:46;25.63;;;12.63;;
76935;SDS011;65881;52.438;16.744;2024-03-22T03:38:12;20.90;;;12.23;;
76935;SDS011;65881;52.438;16.744;2024-03-22T03:40:38;23.38;;;12.98;;
76935;SDS011;65881;52.438;16.744;2024-03-22T03:43:03;21.02;;;13.40;;
76935;SDS011;65881;52.438;16.744;2024-03-22T03:45:29;24.02;;;12.98;;
76935;SDS011;65881;52.438;16.744;2024-03-22T03:47:54;29.98;;;14.25;;
76935;SDS011;65881;52.438;16.744;2024-03-22T03:50:20;29.50;;;14.00;;
76935;SDS011;65881;52.438;16.744;2024-03-22T03:52:45;29.42;;;15.02;;
76935;SDS011;65881;52.438;16.744;2024-03-22T03:55:11;25.42;;;13.18;;
76935;SDS011;65881;52.438;16.744;2024-03-22T03:57:36;33.13;;;13.95;;
76935;SDS011;65881;52.438;16.744;2024-03-22T04:00:02;27.63;;;13.10;;
76935;SDS011;65881;52.438;16.744;2024-03-22T04:02:28;27.13;;;13.55;;
76935;SDS011;65881;52.438;16.744;2024-03-22T04:04:54;29.80;;;13.98;;
76935;SDS011;65881;52.438;16.744;2024-03-22T04:07:20;27.35;;;13.52;;
76935;SDS011;65881;52.438;16.744;2024-03-22T04:09:46;28.15;;;14.05;;
76935;SDS011;65881;52.438;16.744;2024-03-22T04:12:12;30.40;;;14.82;;
76935;SDS011;65881;52.438;16.744;2024-03-22T04:14:38;27.73;;;13.65;;
76935;SDS011;65881;52.438;16.744;2024-03-22T04:17:04;29.80;;;14.65;;
76935;SDS011;65881;52.438;16.744;2024-03-22T04:19:29;31.85;;;15.07;;
76935;SDS011;65881;52.438;16.744;2024-03-22T04:21:55;37.60;;;17.65;;
76935;SDS011;65881;52.438;16.744;2024-03-22T04:24:20;32.55;;;17.02;;
76935;SDS011;65881;52.438;16.744;2024-03-22T04:26:46;34.35;;;14.80;;
76935;SDS011;65881;52.438;16.744;2024-03-22T04:29:11;28.95;;;15.95;;
76935;SDS011;65881;52.438;16.744;2024-03-22T04:31:37;36.35;;;17.88;;
76935;SDS011;65881;52.438;16.744;2024-03-22T04:34:02;35.90;;;14.85;;
76935;SDS011;65881;52.438;16.744;2024-03-22T04:36:30;33.85;;;16.63;;
76935;SDS011;65881;52.438;16.744;2024-03-22T04:38:55;42.63;;;18.48;;
76935;SDS011;65881;52.438;16.744;2024-03-22T04:41:21;39.47;;;18.73;;
76935;SDS011;65881;52.438;16.744;2024-03-22T04:43:46;39.42;;;17.48;;
76935;SDS011;65881;52.438;16.744;2024-03-22T04:46:12;40.30;;;18.05;;
76935;SDS011;65881;52.438;16.744;2024-03-22T04:48:39;35.22;;;16.52;;
76935;SDS011;65881;52.438;16.744;2024-03-22T04:51:04;38.60;;;17.27;;
76935;SDS011;65881;52.438;16.744;2024-03-22T04:53:30;35.58;;;16.50;;
76935;SDS011;65881;52.438;16.744;2024-03-22T04:55:56;34.53;;;15.55;;
76935;SDS011;65881;52.438;16.744;2024-03-22T04:58:21;35.15;;;16.02;;
76935;SDS011;65881;52.438;16.744;2024-03-22T05:00:55;35.13;;;18.33;;
76935;SDS011;65881;52.438;16.744;2024-03-22T05:03:21;34.92;;;17.88;;
76935;SDS011;65881;52.438;16.744;2024-03-22T05:05:47;46.15;;;19.83;;
76935;SDS011;65881;52.438;16.744;2024-03-22T05:08:14;40.65;;;18.50;;
76935;SDS011;65881;52.438;16.744;2024-03-22T05:10:39;43.83;;;19.55;;
76935;SDS011;65881;52.438;16.744;2024-03-22T05:13:05;41.63;;;19.63;;
76935;SDS011;65881;52.438;16.744;2024-03-22T05:15:30;36.50;;;17.10;;
76935;SDS011;65881;52.438;16.744;2024-03-22T05:17:57;45.35;;;21.38;;
76935;SDS011;65881;52.438;16.744;2024-03-22T05:20:23;44.30;;;19.10;;
76935;SDS011;65881;52.438;16.744;2024-03-22T05:22:48;45.63;;;20.40;;
76935;SDS011;65881;52.438;16.744;2024-03-22T05:25:16;40.28;;;17.85;;
76935;SDS011;65881;52.438;16.744;2024-03-22T05:27:42;36.75;;;17.85;;
76935;SDS011;65881;52.438;16.744;2024-03-22T05:30:09;43.97;;;19.15;;
76935;SDS011;65881;52.438;16.744;2024-03-22T05:32:35;42.05;;;18.67;;
76935;SDS011;65881;52.438;16.744;2024-03-22T05:35:01;43.17;;;17.35;;
76935;SDS011;65881;52.438;16.744;2024-03-22T05:37:26;39.88;;;18.23;;
76935;SDS011;65881;52.438;16.744;2024-03-22T05:39:52;37.30;;;17.77;;
76935;SDS011;65881;52.438;16.744;2024-03-22T05:42:18;43.63;;;19.58;;
76935;SDS011;65881;52.438;16.744;2024-03-22T05:44:44;45.35;;;18.90;;
76935;SDS011;65881;52.438;16.744;2024-03-22T05:47:10;40.35;;;19.35;;
76935;SDS011;65881;52.438;16.744;2024-03-22T05:49:35;36.63;;;18.90;;
76935;SDS011;65881;52.438;16.744;2024-03-22T05:52:01;37.63;;;17.42;;
76935;SDS011;65881;52.438;16.744;2024-03-22T05:54:27;38.63;;;17.92;;
76935;SDS011;65881;52.438;16.744;2024-03-22T05:56:52;36.25;;;18.08;;
76935;SDS011;65881;52.438;16.744;2024-03-22T05:59:18;42.17;;;19.83;;
76935;SDS011;65881;52.438;16.744;2024-03-22T06:01:43;38.70;;;18.88;;
76935;SDS011;65881;52.438;16.744;2024-03-22T06:04:09;38.17;;;19.45;;
76935;SDS011;65881;52.438;16.744;2024-03-22T06:06:34;43.63;;;17.55;;
76935;SDS011;65881;52.438;16.744;2024-03-22T06:09:00;36.38;;;17.70;;
76935;SDS011;65881;52.438;16.744;2024-03-22T06:11:34;33.67;;;17.63;;
76935;SDS011;65881;52.438;16.744;2024-03-22T06:14:00;35.28;;;18.10;;
76935;SDS011;65881;52.438;16.744;2024-03-22T06:16:26;34.47;;;17.63;;
76935;SDS011;65881;52.438;16.744;2024-03-22T06:18:51;33.33;;;15.70;;
76935;SDS011;65881;52.438;16.744;2024-03-22T06:21:17;34.72;;;17.05;;
76935;SDS011;65881;52.438;16.744;2024-03-22T06:23:49;43.13;;;17.77;;
76935;SDS011;65881;52.438;16.744;2024-03-22T06:26:15;35.45;;;17.42;;
76935;SDS011;65881;52.438;16.744;2024-03-22T06:28:40;35.90;;;16.27;;
76935;SDS011;65881;52.438;16.744;2024-03-22T06:31:06;32.97;;;14.95;;
76935;SDS011;65881;52.438;16.744;2024-03-22T06:33:31;39.10;;;15.07;;
76935;SDS011;65881;52.438;16.744;2024-03-22T06:35:57;31.10;;;16.48;;
76935;SDS011;65881;52.438;16.744;2024-03-22T06:38:22;32.30;;;15.57;;
76935;SDS011;65881;52.438;16.744;2024-03-22T06:40:48;26.88;;;14.85;;
76935;SDS011;65881;52.438;16.744;2024-03-22T06:43:13;30.23;;;16.08;;
76935;SDS011;65881;52.438;16.744;2024-03-22T06:45:39;31.95;;;16.80;;
76935;SDS011;65881;52.438;16.744;2024-03-22T06:48:04;29.58;;;16.55;;
76935;SDS011;65881;52.438;16.744;2024-03-22T06:50:30;36.22;;;18.05;;
76935;SDS011;65881;52.438;16.744;2024-03-22T06:52:55;31.60;;;16.33;;
76935;SDS011;65881;52.438;16.744;2024-03-22T06:55:21;33.00;;;17.10;;
76935;SDS011;65881;52.438;16.744;2024-03-22T06:57:47;35.25;;;16.80;;
76935;SDS011;65881;52.438;16.744;2024-03-22T07:00:14;28.90;;;15.50;;
76935;SDS011;65881;52.438;16.744;2024-03-22T07:02:40;27.70;;;16.42;;
76935;SDS011;65881;52.438;16.744;2024-03-22T07:05:10;27.15;;;14.90;;
76935;SDS011;65881;52.438;16.744;2024-03-22T07:07:37;29.35;;;15.13;;
76935;SDS011;65881;52.438;16.744;2024-03-22T07:10:04;30.85;;;15.88;;
76935;SDS011;65881;52.438;16.744;2024-03-22T07:12:31;27.73;;;15.57;;
76935;SDS011;65881;52.438;16.744;2024-03-22T07:14:57;31.60;;;16.15;;
76935;SDS011;65881;52.438;16.744;2024-03-22T07:17:25;26.63;;;14.65;;
76935;SDS011;65881;52.438;16.744;2024-03-22T07:19:51;25.88;;;15.07;;
76935;SDS011;65881;52.438;16.744;2024-03-22T07:22:17;26.08;;;16.15;;
76935;SDS011;65881;52.438;16.744;2024-03-22T07:24:43;30.98;;;15.82;;
76935;SDS011;65881;52.438;16.744;2024-03-22T07:27:09;27.50;;;15.75;;
76935;SDS011;65881;52.438;16.744;2024-03-22T07:32:06;27.42;;;13.25;;
76935;SDS011;65881;52.438;16.744;2024-03-22T07:34:32;28.00;;;13.45;;
76935;SDS011;65881;52.438;16.744;2024-03-22T07:36:57;28.45;;;14.75;;
76935;SDS011;65881;52.438;16.744;2024-03-22T07:39:23;23.75;;;14.27;;
76935;SDS011;65881;52.438;16.744;2024-03-22T07:41:49;26.17;;;13.50;;
76935;SDS011;65881;52.438;16.744;2024-03-22T07:44:15;26.95;;;15.57;;
76935;SDS011;65881;52.438;16.744;2024-03-22T07:46:43;25.60;;;13.65;;
76935;SDS011;65881;52.438;16.744;2024-03-22T07:49:09;24.75;;;12.93;;
76935;SDS011;65881;52.438;16.744;2024-03-22T07:51:34;24.00;;;13.30;;
76935;SDS011;65881;52.438;16.744;2024-03-22T07:54:00;27.75;;;15.40;;
76935;SDS011;65881;52.438;16.744;2024-03-22T07:56:26;26.80;;;13.75;;
76935;SDS011;65881;52.438;16.744;2024-03-22T07:58:51;25.55;;;13.20;;
76935;SDS011;65881;52.438;16.744;2024-03-22T08:01:17;25.55;;;12.93;;
76935;SDS011;65881;52.438;16.744;2024-03-22T08:03:42;21.83;;;13.70;;
76935;SDS011;65881;52.438;16.744;2024-03-22T08:06:08;21.38;;;13.52;;
76935;SDS011;65881;52.438;16.744;2024-03-22T08:08:34;22.15;;;12.07;;
76935;SDS011;65881;52.438;16.744;2024-03-22T08:10:59;23.77;;;13.02;;
76935;SDS011;65881;52.438;16.744;2024-03-22T08:13:25;22.33;;;11.95;;
76935;SDS011;65881;52.438;16.744;2024-03-22T08:15:50;25.38;;;12.77;;
76935;SDS011;65881;52.438;16.744;2024-03-22T08:18:16;27.92;;;13.10;;
76935;SDS011;65881;52.438;16.744;2024-03-22T08:20:41;25.42;;;13.32;;
76935;SDS011;65881;52.438;16.744;2024-03-22T08:23:07;24.02;;;13.27;;
76935;SDS011;65881;52.438;16.744;2024-03-22T08:25:32;23.42;;;12.27;;
76935;SDS011;65881;52.438;16.744;2024-03-22T08:27:58;25.75;;;13.20;;
76935;SDS011;65881;52.438;16.744;2024-03-22T08:30:24;21.42;;;12.75;;
76935;SDS011;65881;52.438;16.744;2024-03-22T08:32:50;22.63;;;12.52;;
76935;SDS011;65881;52.438;16.744;2024-03-22T08:35:18;21.00;;;12.93;;
76935;SDS011;65881;52.438;16.744;2024-03-22T08:37:44;24.55;;;12.80;;
76935;SDS011;65881;52.438;16.744;2024-03-22T08:40:10;26.15;;;12.98;;
76935;SDS011;65881;52.438;16.744;2024-03-22T08:42:36;24.92;;;13.77;;
76935;SDS011;65881;52.438;16.744;2024-03-22T08:45:01;24.27;;;12.98;;
76935;SDS011;65881;52.438;16.744;2024-03-22T08:47:29;22.90;;;13.02;;
76935;SDS011;65881;52.438;16.744;2024-03-22T08:49:56;23.55;;;12.10;;
76935;SDS011;65881;52.438;16.744;2024-03-22T08:52:22;25.33;;;13.70;;
76935;SDS011;65881;52.438;16.744;2024-03-22T08:54:49;25.25;;;12.93;;
76935;SDS011;65881;52.438;16.744;2024-03-22T08:57:15;22.98;;;11.98;;
76935;SDS011;65881;52.438;16.744;2024-03-22T08:59:41;22.38;;;12.73;;
76935;SDS011;65881;52.438;16.744;2024-03-22T09:02:06;23.52;;;12.45;;
76935;SDS011;65881;52.438;16.744;2024-03-22T09:04:32;23.17;;;14.48;;
76935;SDS011;65881;52.438;16.744;2024-03-22T09:06:57;22.80;;;12.50;;
76935;SDS011;65881;52.438;16.744;2024-03-22T09:09:23;24.10;;;12.10;;
76935;SDS011;65881;52.438;16.744;2024-03-22T09:11:49;32.90;;;14.55;;
76935;SDS011;65881;52.438;16.744;2024-03-22T09:14:14;21.00;;;13.00;;
76935;SDS011;65881;52.438;16.744;2024-03-22T09:16:40;22.40;;;11.95;;
76935;SDS011;65881;52.438;16.744;2024-03-22T09:19:05;23.10;;;13.63;;
76935;SDS011;65881;52.438;16.744;2024-03-22T09:21:31;21.35;;;13.07;;
76935;SDS011;65881;52.438;16.744;2024-03-22T09:23:57;22.08;;;13.45;;
76935;SDS011;65881;52.438;16.744;2024-03-22T09:26:23;27.65;;;15.05;;
76935;SDS011;65881;52.438;16.744;2024-03-22T09:28:48;21.90;;;14.40;;
76935;SDS011;65881;52.438;16.744;2024-03-22T09:31:15;23.05;;;13.45;;
76935;SDS011;65881;52.438;16.744;2024-03-22T09:33:41;24.63;;;13.93;;
76935;SDS011;65881;52.438;16.744;2024-03-22T09:36:07;22.90;;;13.02;;
76935;SDS011;65881;52.438;16.744;2024-03-22T09:38:33;23.73;;;12.13;;
76935;SDS011;65881;52.438;16.744;2024-03-22T09:40:58;24.65;;;14.68;;
76935;SDS011;65881;52.438;16.744;2024-03-22T09:43:24;22.90;;;12.75;;
76935;SDS011;65881;52.438;16.744;2024-03-22T09:45:52;21.20;;;13.82;;
76935;SDS011;65881;52.438;16.744;2024-03-22T09:48:19;24.33;;;14.13;;
76935;SDS011;65881;52.438;16.744;2024-03-22T09:50:48;26.20;;;14.55;;
76935;SDS011;65881;52.438;16.744;2024-03-22T09:53:18;21.88;;;13.05;;
76935;SDS011;65881;52.438;16.744;2024-03-22T09:55:45;23.40;;;12.85;;
76935;SDS011;65881;52.438;16.744;2024-03-22T09:58:14;23.38;;;13.30;;
76935;SDS011;65881;52.438;16.744;2024-03-22T10:00:41;21.52;;;13.75;;
76935;SDS011;65881;52.438;16.744;2024-03-22T10:03:07;28.10;;;15.02;;
76935;SDS011;65881;52.438;16.744;2024-03-22T10:05:34;21.30;;;11.68;;
76935;SDS011;65881;52.438;16.744;2024-03-22T10:07:59;28.30;;;13.95;;
76935;SDS011;65881;52.438;16.744;2024-03-22T10:10:25;20.20;;;12.35;;
76935;SDS011;65881;52.438;16.744;2024-03-22T10:12:50;21.02;;;13.30;;
76935;SDS011;65881;52.438;16.744;2024-03-22T10:15:18;17.88;;;10.73;;
76935;SDS011;65881;52.438;16.744;2024-03-22T10:17:43;23.92;;;15.43;;
76935;SDS011;65881;52.438;16.744;2024-03-22T10:20:12;21.45;;;12.73;;
76935;SDS011;65881;52.438;16.744;2024-03-22T10:22:41;23.08;;;13.63;;
76935;SDS011;65881;52.438;16.744;2024-03-22T10:25:07;24.30;;;13.07;;
76935;SDS011;65881;52.438;16.744;2024-03-22T10:27:33;21.40;;;12.90;;
76935;SDS011;65881;52.438;16.744;2024-03-22T10:29:59;18.15;;;12.68;;
76935;SDS011;65881;52.438;16.744;2024-03-22T10:32:25;19.45;;;12.32;;
76935;SDS011;65881;52.438;16.744;2024-03-22T10:34:50;22.33;;;12.57;;
76935;SDS011;65881;52.438;16.744;2024-03-22T10:37:16;22.38;;;12.55;;
76935;SDS011;65881;52.438;16.744;2024-03-22T10:39:42;18.35;;;11.32;;
76935;SDS011;65881;52.438;16.744;2024-03-22T10:42:11;18.60;;;11.07;;
76935;SDS011;65881;52.438;16.744;2024-03-22T10:44:37;21.85;;;12.55;;
76935;SDS011;65881;52.438;16.744;2024-03-22T10:47:04;26.20;;;13.77;;
76935;SDS011;65881;52.438;16.744;2024-03-22T10:49:30;22.40;;;12.35;;
76935;SDS011;65881;52.438;16.744;2024-03-22T10:52:02;25.23;;;14.15;;
76935;SDS011;65881;52.438;16.744;2024-03-22T10:54:33;21.70;;;12.55;;
76935;SDS011;65881;52.438;16.744;2024-03-22T10:57:01;19.80;;;11.82;;
76935;SDS011;65881;52.438;16.744;2024-03-22T10:59:27;17.90;;;10.55;;
76935;SDS011;65881;52.438;16.744;2024-03-22T11:02:03;17.70;;;11.55;;
76935;SDS011;65881;52.438;16.744;2024-03-22T11:04:32;24.38;;;13.50;;
76935;SDS011;65881;52.438;16.744;2024-03-22T11:06:57;20.55;;;11.93;;
76935;SDS011;65881;52.438;16.744;2024-03-22T11:09:26;21.98;;;12.63;;
76935;SDS011;65881;52.438;16.744;2024-03-22T11:11:53;20.42;;;11.63;;
76935;SDS011;65881;52.438;16.744;2024-03-22T11:14:20;16.10;;;9.43;;
76935;SDS011;65881;52.438;16.744;2024-03-22T11:16:46;23.20;;;12.07;;
76935;SDS011;65881;52.438;16.744;2024-03-22T11:19:12;18.88;;;11.23;;
76935;SDS011;65881;52.438;16.744;2024-03-22T11:21:38;18.30;;;11.27;;
76935;SDS011;65881;52.438;16.744;2024-03-22T11:24:04;19.58;;;10.05;;
76935;SDS011;65881;52.438;16.744;2024-03-22T11:26:30;21.70;;;11.07;;
76935;SDS011;65881;52.438;16.744;2024-03-22T11:28:57;19.05;;;11.00;;
76935;SDS011;65881;52.438;16.744;2024-03-22T11:31:23;22.15;;;11.27;;
76935;SDS011;65881;52.438;16.744;2024-03-22T11:33:52;23.27;;;12.25;;
76935;SDS011;65881;52.438;16.744;2024-03-22T11:36:18;18.55;;;11.82;;
76935;SDS011;65881;52.438;16.744;2024-03-22T11:38:44;17.95;;;11.52;;
76935;SDS011;65881;52.438;16.744;2024-03-22T11:41:10;24.58;;;13.40;;
76935;SDS011;65881;52.438;16.744;2024-03-22T11:43:36;22.98;;;13.25;;
76935;SDS011;65881;52.438;16.744;2024-03-22T11:46:02;20.38;;;12.30;;
76935;SDS011;65881;52.438;16.744;2024-03-22T11:48:28;18.90;;;11.32;;
76935;SDS011;65881;52.438;16.744;2024-03-22T11:50:53;22.58;;;13.27;;
76935;SDS011;65881;52.438;16.744;2024-03-22T11:53:20;24.83;;;13.07;;
76935;SDS011;65881;52.438;16.744;2024-03-22T11:55:48;20.85;;;12.90;;
76935;SDS011;65881;52.438;16.744;2024-03-22T11:58:14;22.13;;;13.55;;
76935;SDS011;65881;52.438;16.744;2024-03-22T12:00:42;19.85;;;11.77;;
76935;SDS011;65881;52.438;16.744;2024-03-22T12:03:07;23.70;;;13.32;;
76935;SDS011;65881;52.438;16.744;2024-03-22T12:05:34;19.65;;;11.73;;
76935;SDS011;65881;52.438;16.744;2024-03-22T12:08:00;26.83;;;14.45;;
76935;SDS011;65881;52.438;16.744;2024-03-22T12:10:27;25.50;;;14.23;;
76935;SDS011;65881;52.438;16.744;2024-03-22T12:12:53;24.50;;;13.93;;
76935;SDS011;65881;52.438;16.744;2024-03-22T12:15:22;21.25;;;12.70;;
76935;SDS011;65881;52.438;16.744;2024-03-22T12:17:47;25.33;;;12.38;;
76935;SDS011;65881;52.438;16.744;2024-03-22T12:20:13;23.05;;;13.25;;
76935;SDS011;65881;52.438;16.744;2024-03-22T12:22:39;19.10;;;11.88;;
76935;SDS011;65881;52.438;16.744;2024-03-22T12:25:05;22.50;;;13.68;;
76935;SDS011;65881;52.438;16.744;2024-03-22T12:27:31;23.13;;;13.27;;
76935;SDS011;65881;52.438;16.744;2024-03-22T12:29:58;22.63;;;13.27;;
76935;SDS011;65881;52.438;16.744;2024-03-22T12:32:24;26.15;;;13.75;;
76935;SDS011;65881;52.438;16.744;2024-03-22T12:34:50;19.90;;;12.18;;
76935;SDS011;65881;52.438;16.744;2024-03-22T12:37:16;21.35;;;13.27;;
76935;SDS011;65881;52.438;16.744;2024-03-22T12:39:41;28.08;;;13.30;;
76935;SDS011;65881;52.438;16.744;2024-03-22T12:42:07;19.17;;;11.32;;
76935;SDS011;65881;52.438;16.744;2024-03-22T12:44:33;23.40;;;11.88;;
76935;SDS011;65881;52.438;16.744;2024-03-22T12:46:59;20.83;;;11.25;;
76935;SDS011;65881;52.438;16.744;2024-03-22T12:49:25;18.33;;;12.63;;
76935;SDS011;65881;52.438;16.744;2024-03-22T12:51:50;20.27;;;11.45;;
76935;SDS011;65881;52.438;16.744;2024-03-22T12:54:16;20.85;;;11.63;;
76935;SDS011;65881;52.438;16.744;2024-03-22T12:56:43;20.50;;;12.68;;
76935;SDS011;65881;52.438;16.744;2024-03-22T12:59:10;21.77;;;11.15;;
76935;SDS011;65881;52.438;16.744;2024-03-22T13:01:35;18.42;;;11.63;;
76935;SDS011;65881;52.438;16.744;2024-03-22T13:04:01;22.60;;;11.52;;
76935;SDS011;65881;52.438;16.744;2024-03-22T13:06:27;26.08;;;11.30;;
76935;SDS011;65881;52.438;16.744;2024-03-22T13:08:53;22.30;;;11.82;;
76935;SDS011;65881;52.438;16.744;2024-03-22T13:11:18;25.83;;;16.13;;
76935;SDS011;65881;52.438;16.744;2024-03-22T13:13:44;22.05;;;13.10;;
76935;SDS011;65881;52.438;16.744;2024-03-22T13:16:12;22.35;;;13.43;;
76935;SDS011;65881;52.438;16.744;2024-03-22T13:18:39;22.77;;;15.38;;
76935;SDS011;65881;52.438;16.744;2024-03-22T13:21:05;24.23;;;14.38;;
76935;SDS011;65881;52.438;16.744;2024-03-22T13:23:31;21.25;;;13.48;;
76935;SDS011;65881;52.438;16.744;2024-03-22T13:25:59;18.58;;;11.18;;
76935;SDS011;65881;52.438;16.744;2024-03-22T13:28:28;23.20;;;13.73;;
76935;SDS011;65881;52.438;16.744;2024-03-22T13:31:03;19.90;;;12.52;;
76935;SDS011;65881;52.438;16.744;2024-03-22T13:33:31;22.60;;;11.98;;
76935;SDS011;65881;52.438;16.744;2024-03-22T13:35:58;25.48;;;11.98;;
76935;SDS011;65881;52.438;16.744;2024-03-22T13:38:28;21.80;;;11.82;;
76935;SDS011;65881;52.438;16.744;2024-03-22T13:40:55;23.23;;;11.80;;
76935;SDS011;65881;52.438;16.744;2024-03-22T13:43:22;20.45;;;11.73;;
76935;SDS011;65881;52.438;16.744;2024-03-22T13:45:50;21.85;;;11.35;;
76935;SDS011;65881;52.438;16.744;2024-03-22T13:48:22;21.70;;;11.75;;
76935;SDS011;65881;52.438;16.744;2024-03-22T13:50:49;20.10;;;12.85;;
76935;SDS011;65881;52.438;16.744;2024-03-22T13:53:17;20.90;;;11.82;;
76935;SDS011;65881;52.438;16.744;2024-03-22T13:55:43;19.30;;;11.40;;
76935;SDS011;65881;52.438;16.744;2024-03-22T13:58:09;19.63;;;12.10;;
76935;SDS011;65881;52.438;16.744;2024-03-22T14:00:37;20.85;;;11.98;;
76935;SDS011;65881;52.438;16.744;2024-03-22T14:03:03;21.65;;;12.15;;
76935;SDS011;65881;52.438;16.744;2024-03-22T14:05:32;20.58;;;13.00;;